Terminal Aerodrome Forecast
Issued by NWS

Home | Current Version | Previous Version | Text Only | Print | Product List | Glossary On
Versions: 1 2 3 4 5 6 7 8 9 10 11 12 13 14 15 16 17 18
000
FTUS44 KHGX 230703 AAA
TAFLBX
TAF AMD
KLBX 230703Z 2307/2406 VRB03KT 6SM BR SCT250
      TEMPO 2307/2310 3SM BR
     FM231000 00000KT 4SM MIFG SCT150
      TEMPO 2310/2313 2SM BR
     FM231300 04006KT P6SM SCT120=

USA.gov is the U.S. government's official web portal to all federal, state and local government web resources and services.